Home > Products > Valid Products > TAF

000
FTPA31 PHFO 250200 AAA
TAFHNL
TAF AMD
PHNL 250255Z 2503/2606 19010KT P6SM FEW030 SCT045 BKN200
     FM250600 VRB06KT P6SM VCSH SCT030 BKN045
     FM252000 15008KT P6SM VCSH SCT030 BKN045=



000
FTPA31 PHFO 250200 AAA
TAFHNL
TAF AMD
PHNL 250255Z 2503/2606 19010KT P6SM FEW030 SCT045 BKN200
     FM250600 VRB06KT P6SM VCSH SCT030 BKN045
     FM252000 15008KT P6SM VCSH SCT030 BKN045=



000
FTPA31 PHFO 242300
TAFHNL
TAF
PHNL 242333Z 2500/2606 16011KT P6SM FEW030 SCT045 BKN250
     FM250600 VRB06KT P6SM VCSH SCT030 BKN045
     FM252000 15008KT P6SM VCSH SCT030 BKN045=



000
FTPA31 PHFO 242300
TAFHNL
TAF
PHNL 242333Z 2500/2606 16011KT P6SM FEW030 SCT045 BKN250
     FM250600 VRB06KT P6SM VCSH SCT030 BKN045
     FM252000 15008KT P6SM VCSH SCT030 BKN045=



000
FTPA31 PHFO 242100 AAA
TAFHNL
TAF AMD
PHNL 242106Z 2421/2524 17011KT P6SM VCSH FEW030 SCT045
     FM250600 VRB06KT P6SM VCSH SCT030 BKN045=



000
FTPA31 PHFO 242100 AAA
TAFHNL
TAF AMD
PHNL 242106Z 2421/2524 17011KT P6SM VCSH FEW030 SCT045
     FM250600 VRB06KT P6SM VCSH SCT030 BKN045=



000
FTPA31 PHFO 241700
TAFHNL
TAF
PHNL 241731Z 2418/2524 36005KT P6SM VCSH FEW025 SCT050
     FM241900 12010KT P6SM VCSH FEW030 SCT045
     FM242300 17012KT P6SM VCSH FEW030 SCT045
     FM250600 VRB06KT P6SM VCSH SCT030 BKN045=



000
FTPA31 PHFO 241700
TAFHNL
TAF
PHNL 241731Z 2418/2524 36005KT P6SM VCSH FEW025 SCT050
     FM241900 12010KT P6SM VCSH FEW030 SCT045
     FM242300 17012KT P6SM VCSH FEW030 SCT045
     FM250600 VRB06KT P6SM VCSH SCT030 BKN045=



000
FTPA31 PHFO 241700
TAFHNL
TAF
PHNL 241731Z 2418/2524 36005KT P6SM VCSH FEW025 SCT050
     FM241900 12010KT P6SM VCSH FEW030 SCT045
     FM242300 17012KT P6SM VCSH FEW030 SCT045
     FM250600 VRB06KT P6SM VCSH SCT030 BKN045=



000
FTPA31 PHFO 241700
TAFHNL
TAF
PHNL 241731Z 2418/2524 36005KT P6SM VCSH FEW025 SCT050
     FM241900 12010KT P6SM VCSH FEW030 SCT045
     FM242300 17012KT P6SM VCSH FEW030 SCT045
     FM250600 VRB06KT P6SM VCSH SCT030 BKN045=



000
FTPA31 PHFO 241400 AAA
TAFHNL
TAF AMD
PHNL 241459Z 2415/2518 VRB06KT P6SM FEW025 SCT050
     FM242000 17012KT P6SM FEW030 SCT045
     FM250600 VRB06KT P6SM VCSH SCT030 BKN045=



000
FTPA31 PHFO 241400 AAA
TAFHNL
TAF AMD
PHNL 241459Z 2415/2518 VRB06KT P6SM FEW025 SCT050
     FM242000 17012KT P6SM FEW030 SCT045
     FM250600 VRB06KT P6SM VCSH SCT030 BKN045=



000
FTPA31 PHFO 241100
TAFHNL
TAF
PHNL 241125Z 2412/2518 VRB06KT P6SM VCSH FEW025 SCT035 BKN050
     FM242000 17012KT P6SM FEW030 BKN045
     FM250600 VRB06KT P6SM VCSH FEW025 SCT035=



000
FTPA31 PHFO 241100
TAFHNL
TAF
PHNL 241125Z 2412/2518 VRB06KT P6SM VCSH FEW025 SCT035 BKN050
     FM242000 17012KT P6SM FEW030 BKN045
     FM250600 VRB06KT P6SM VCSH FEW025 SCT035=



000
FTPA31 PHFO 241100
TAFHNL
TAF
PHNL 241125Z 2412/2518 VRB06KT P6SM VCSH FEW025 SCT035 BKN050
     FM242000 17012KT P6SM FEW030 BKN045
     FM250600 VRB06KT P6SM VCSH FEW025 SCT035=



000
FTPA31 PHFO 241100
TAFHNL
TAF
PHNL 241125Z 2412/2518 VRB06KT P6SM VCSH FEW025 SCT035 BKN050
     FM242000 17012KT P6SM FEW030 BKN045
     FM250600 VRB06KT P6SM VCSH FEW025 SCT035=



000
FTPA31 PHFO 240800 AAA
TAFHNL
TAF AMD
PHNL 240857Z 2409/2512 VRB06KT P6SM VCSH FEW020 SCT030 BKN050
     FM242000 17012KT P6SM FEW030 BKN045
     FM250600 VRB06KT P6SM FEW030 SCT045=



000
FTPA31 PHFO 240800 AAA
TAFHNL
TAF AMD
PHNL 240857Z 2409/2512 VRB06KT P6SM VCSH FEW020 SCT030 BKN050
     FM242000 17012KT P6SM FEW030 BKN045
     FM250600 VRB06KT P6SM FEW030 SCT045=



000
FTPA31 PHFO 240800 AAA
TAFHNL
TAF AMD
PHNL 240857Z 2409/2512 VRB06KT P6SM VCSH FEW020 SCT030 BKN050
     FM242000 17012KT P6SM FEW030 BKN045
     FM250600 VRB06KT P6SM FEW030 SCT045=



000
FTPA31 PHFO 240800 AAA
TAFHNL
TAF AMD
PHNL 240857Z 2409/2512 VRB06KT P6SM VCSH FEW020 SCT030 BKN050
     FM242000 17012KT P6SM FEW030 BKN045
     FM250600 VRB06KT P6SM FEW030 SCT045=



000
FTPA31 PHFO 240500
TAFHNL
TAF
PHNL 240527Z 2406/2512 15008KT P6SM FEW025 SCT040
     FM240800 VRB06KT P6SM FEW025 SCT040
     FM242000 17012KT P6SM VCSH SCT030 BKN045
     FM250600 15008KT P6SM VCSH SCT025 BKN040=



000
FTPA31 PHFO 240500
TAFHNL
TAF
PHNL 240527Z 2406/2512 15008KT P6SM FEW025 SCT040
     FM240800 VRB06KT P6SM FEW025 SCT040
     FM242000 17012KT P6SM VCSH SCT030 BKN045
     FM250600 15008KT P6SM VCSH SCT025 BKN040=



000
FTPA31 PHFO 240300 AAB
TAFHNL
TAF AMD
PHNL 240305Z 2403/2506 24012KT P6SM SCT025 BKN050
     FM240600 VRB06KT P6SM FEW030 SCT050
     FM242000 17012KT P6SM SCT030 BKN050=



000
FTPA31 PHFO 240300 AAB
TAFHNL
TAF AMD
PHNL 240305Z 2403/2506 24012KT P6SM SCT025 BKN050
     FM240600 VRB06KT P6SM FEW030 SCT050
     FM242000 17012KT P6SM SCT030 BKN050=



000
FTPA31 PHFO 240300 AAB
TAFHNL
TAF AMD
PHNL 240305Z 2403/2506 24012KT P6SM SCT025 BKN050
     FM240600 VRB06KT P6SM FEW030 SCT050
     FM242000 17012KT P6SM SCT030 BKN050=



000
FTPA31 PHFO 240300 AAB
TAFHNL
TAF AMD
PHNL 240305Z 2403/2506 24012KT P6SM SCT025 BKN050
     FM240600 VRB06KT P6SM FEW030 SCT050
     FM242000 17012KT P6SM SCT030 BKN050=



000
FTPA31 PHFO 240200 AAA
TAFHNL
TAF AMD
PHNL 240201Z 2402/2506 24012KT P6SM FEW025 BKN050
     FM240600 VRB06KT P6SM FEW030 SCT050
     FM242000 17012KT P6SM SCT030 BKN050=



000
FTPA31 PHFO 240200 AAA
TAFHNL
TAF AMD
PHNL 240201Z 2402/2506 24012KT P6SM FEW025 BKN050
     FM240600 VRB06KT P6SM FEW030 SCT050
     FM242000 17012KT P6SM SCT030 BKN050=



000
FTPA31 PHFO 240200 AAA
TAFHNL
TAF AMD
PHNL 240201Z 2402/2506 24012KT P6SM FEW025 BKN050
     FM240600 VRB06KT P6SM FEW030 SCT050
     FM242000 17012KT P6SM SCT030 BKN050=



000
FTPA31 PHFO 240200 AAA
TAFHNL
TAF AMD
PHNL 240201Z 2402/2506 24012KT P6SM FEW025 BKN050
     FM240600 VRB06KT P6SM FEW030 SCT050
     FM242000 17012KT P6SM SCT030 BKN050=



000
FTPA31 PHFO 232300
TAFHNL
TAF
PHNL 232330Z 2400/2506 18009KT P6SM FEW025 BKN050
     FM240600 VRB06KT P6SM FEW030 SCT050
     FM242000 17012KT P6SM SCT030 BKN050=



000
FTPA31 PHFO 232300
TAFHNL
TAF
PHNL 232330Z 2400/2506 18009KT P6SM FEW025 BKN050
     FM240600 VRB06KT P6SM FEW030 SCT050
     FM242000 17012KT P6SM SCT030 BKN050=



000
FTPA31 PHFO 232300
TAFHNL
TAF
PHNL 232330Z 2400/2506 18009KT P6SM FEW025 BKN050
     FM240600 VRB06KT P6SM FEW030 SCT050
     FM242000 17012KT P6SM SCT030 BKN050=



000
FTPA31 PHFO 232300
TAFHNL
TAF
PHNL 232330Z 2400/2506 18009KT P6SM FEW025 BKN050
     FM240600 VRB06KT P6SM FEW030 SCT050
     FM242000 17012KT P6SM SCT030 BKN050=



000
FTPA31 PHFO 232100 AAA
TAFHNL
TAF AMD
PHNL 232108Z 2321/2424 18009KT P6SM FEW025 BKN050
     FM240600 VRB06KT P6SM FEW030 SCT050
     FM242000 13012KT P6SM SCT030 BKN050=



000
FTPA31 PHFO 232100 AAA
TAFHNL
TAF AMD
PHNL 232108Z 2321/2424 18009KT P6SM FEW025 BKN050
     FM240600 VRB06KT P6SM FEW030 SCT050
     FM242000 13012KT P6SM SCT030 BKN050=



000
FTPA31 PHFO 231700
TAFHNL
TAF
PHNL 231730Z 2318/2424 13009KT P6SM FEW025 BKN050
     FM240600 VRB06KT P6SM FEW030 SCT050
     FM242000 13012KT P6SM SCT030 BKN050=



000
FTPA31 PHFO 231700
TAFHNL
TAF
PHNL 231730Z 2318/2424 13009KT P6SM FEW025 BKN050
     FM240600 VRB06KT P6SM FEW030 SCT050
     FM242000 13012KT P6SM SCT030 BKN050=



000
FTPA31 PHFO 231400 AAA
TAFHNL
TAF AMD
PHNL 231457Z 2315/2418 VRB06KT P6SM FEW025 SCT050
     FM232000 13012KT P6SM SCT030 BKN050
     FM240600 VRB06KT P6SM FEW030 SCT050=



000
FTPA31 PHFO 231400 AAA
TAFHNL
TAF AMD
PHNL 231457Z 2315/2418 VRB06KT P6SM FEW025 SCT050
     FM232000 13012KT P6SM SCT030 BKN050
     FM240600 VRB06KT P6SM FEW030 SCT050=



000
FTPA31 PHFO 231100
TAFHNL
TAF
PHNL 231134Z 2312/2418 VRB06KT P6SM FEW030 BKN050
     FM232000 13012KT P6SM SCT030 BKN050
     FM240600 VRB06KT P6SM FEW030 SCT050=



000
FTPA31 PHFO 231100
TAFHNL
TAF
PHNL 231134Z 2312/2418 VRB06KT P6SM FEW030 BKN050
     FM232000 13012KT P6SM SCT030 BKN050
     FM240600 VRB06KT P6SM FEW030 SCT050=



000
FTPA31 PHFO 230800 AAA
TAFHNL
TAF AMD
PHNL 230859Z 2309/2412 VRB06KT P6SM FEW030 SCT050
     FM232000 13012KT P6SM SCT030 BKN050
     FM240600 VRB06KT P6SM FEW030 SCT050=



000
FTPA31 PHFO 230800 AAA
TAFHNL
TAF AMD
PHNL 230859Z 2309/2412 VRB06KT P6SM FEW030 SCT050
     FM232000 13012KT P6SM SCT030 BKN050
     FM240600 VRB06KT P6SM FEW030 SCT050=



000
FTPA31 PHFO 230500
TAFHNL
TAF
PHNL 230534Z 2306/2412 VRB06KT P6SM FEW025 SCT050
     FM232100 13012KT P6SM SCT030 BKN050
     FM240600 08010KT P6SM FEW025 SCT050=



000
FTPA31 PHFO 230500
TAFHNL
TAF
PHNL 230534Z 2306/2412 VRB06KT P6SM FEW025 SCT050
     FM232100 13012KT P6SM SCT030 BKN050
     FM240600 08010KT P6SM FEW025 SCT050=



000
FTPA31 PHFO 230300 AAA
TAFHNL
TAF AMD
PHNL 230305Z 2303/2406 18007KT P6SM FEW025 SCT050
     FM230500 05007KT P6SM FEW025 SCT050
     FM232100 13012KT P6SM SCT030 BKN050=



000
FTPA31 PHFO 230300 AAA
TAFHNL
TAF AMD
PHNL 230305Z 2303/2406 18007KT P6SM FEW025 SCT050
     FM230500 05007KT P6SM FEW025 SCT050
     FM232100 13012KT P6SM SCT030 BKN050=



000
FTPA31 PHFO 230300 AAA
TAFHNL
TAF AMD
PHNL 230305Z 2303/2406 18007KT P6SM FEW025 SCT050
     FM230500 05007KT P6SM FEW025 SCT050
     FM232100 13012KT P6SM SCT030 BKN050=



000
FTPA31 PHFO 230300 AAA
TAFHNL
TAF AMD
PHNL 230305Z 2303/2406 18007KT P6SM FEW025 SCT050
     FM230500 05007KT P6SM FEW025 SCT050
     FM232100 13012KT P6SM SCT030 BKN050=



000
FTPA31 PHFO 222300
TAFHNL
TAF
PHNL 222333Z 2300/2406 13012KT P6SM FEW030 SCT050
     FM230300 05007KT P6SM FEW025 SCT050
     FM232100 13012KT P6SM SCT030 BKN050=



000
FTPA31 PHFO 222300
TAFHNL
TAF
PHNL 222333Z 2300/2406 13012KT P6SM FEW030 SCT050
     FM230300 05007KT P6SM FEW025 SCT050
     FM232100 13012KT P6SM SCT030 BKN050=



000
FTPA31 PHFO 222300
TAFHNL
TAF
PHNL 222333Z 2300/2406 13012KT P6SM FEW030 SCT050
     FM230300 05007KT P6SM FEW025 SCT050
     FM232100 13012KT P6SM SCT030 BKN050=



000
FTPA31 PHFO 222300
TAFHNL
TAF
PHNL 222333Z 2300/2406 13012KT P6SM FEW030 SCT050
     FM230300 05007KT P6SM FEW025 SCT050
     FM232100 13012KT P6SM SCT030 BKN050=



000
FTPA31 PHFO 222100 AAA
TAFHNL
TAF AMD
PHNL 222105Z 2221/2324 09012KT P6SM SCT030 SCT050
     FM230500 07007KT P6SM VCSH SCT025 BKN045
     FM232000 13012KT P6SM SCT030 BKN050=



000
FTPA31 PHFO 222100 AAA
TAFHNL
TAF AMD
PHNL 222105Z 2221/2324 09012KT P6SM SCT030 SCT050
     FM230500 07007KT P6SM VCSH SCT025 BKN045
     FM232000 13012KT P6SM SCT030 BKN050=



000
FTPA31 PHFO 221700
TAFHNL
TAF
PHNL 221728Z 2218/2324 02005KT P6SM SCT030 SCT050
     FM222000 12012KT P6SM SCT030 BKN050
     FM230500 07007KT P6SM VCSH SCT025 BKN045
     FM232000 13012KT P6SM SCT030 BKN050=



000
FTPA31 PHFO 221700
TAFHNL
TAF
PHNL 221728Z 2218/2324 02005KT P6SM SCT030 SCT050
     FM222000 12012KT P6SM SCT030 BKN050
     FM230500 07007KT P6SM VCSH SCT025 BKN045
     FM232000 13012KT P6SM SCT030 BKN050=



000
FTPA31 PHFO 221500 AAA
TAFHNL
TAF AMD
PHNL 221501Z 2215/2318 02005KT P6SM VCSH SCT030 BKN045
     FM222000 12013G18KT P6SM SCT030 BKN050
     FM230500 07007KT P6SM VCSH SCT030 BKN045=



000
FTPA31 PHFO 221500 AAA
TAFHNL
TAF AMD
PHNL 221501Z 2215/2318 02005KT P6SM VCSH SCT030 BKN045
     FM222000 12013G18KT P6SM SCT030 BKN050
     FM230500 07007KT P6SM VCSH SCT030 BKN045=



000
FTPA31 PHFO 221500 AAA
TAFHNL
TAF AMD
PHNL 221501Z 2215/2318 02005KT P6SM VCSH SCT030 BKN045
     FM222000 12013G18KT P6SM SCT030 BKN050
     FM230500 07007KT P6SM VCSH SCT030 BKN045=



000
FTPA31 PHFO 221100
TAFHNL
TAF
PHNL 221135Z 2212/2318 05005KT P6SM VCSH SCT030 BKN045
     FM222000 12013G18KT P6SM SCT030 BKN050
     FM230500 07007KT P6SM VCSH SCT030 BKN045=



000
FTPA31 PHFO 221100
TAFHNL
TAF
PHNL 221135Z 2212/2318 05005KT P6SM VCSH SCT030 BKN045
     FM222000 12013G18KT P6SM SCT030 BKN050
     FM230500 07007KT P6SM VCSH SCT030 BKN045=



000
FTPA31 PHFO 220900 AAA
TAFHNL
TAF AMD
PHNL 220906Z 2209/2312 20007KT P6SM VCSH FEW030 SCT050
     FM221000 07008KT P6SM SCT030 SCT045
     FM222000 13013KT P6SM SCT030 BKN050
     FM230500 07007KT P6SM SCT030 BKN050=



000
FTPA31 PHFO 220900 AAA
TAFHNL
TAF AMD
PHNL 220906Z 2209/2312 20007KT P6SM VCSH FEW030 SCT050
     FM221000 07008KT P6SM SCT030 SCT045
     FM222000 13013KT P6SM SCT030 BKN050
     FM230500 07007KT P6SM SCT030 BKN050=



000
FTPA31 PHFO 220500
TAFHNL
TAF
PHNL 220538Z 2206/2312 08011KT P6SM VCSH FEW030 SCT050
     FM221000 07008KT P6SM SCT030 SCT045
     FM222000 13013KT P6SM SCT030 BKN050
     FM230500 07007KT P6SM SCT030 BKN050=



000
FTPA31 PHFO 220500
TAFHNL
TAF
PHNL 220538Z 2206/2312 08011KT P6SM VCSH FEW030 SCT050
     FM221000 07008KT P6SM SCT030 SCT045
     FM222000 13013KT P6SM SCT030 BKN050
     FM230500 07007KT P6SM SCT030 BKN050=



000
FTPA31 PHFO 220500
TAFHNL
TAF
PHNL 220538Z 2206/2312 08011KT P6SM VCSH FEW030 SCT050
     FM221000 07008KT P6SM SCT030 SCT045
     FM222000 13013KT P6SM SCT030 BKN050
     FM230500 07007KT P6SM SCT030 BKN050=



000
FTPA31 PHFO 220500
TAFHNL
TAF
PHNL 220538Z 2206/2312 08011KT P6SM VCSH FEW030 SCT050
     FM221000 07008KT P6SM SCT030 SCT045
     FM222000 13013KT P6SM SCT030 BKN050
     FM230500 07007KT P6SM SCT030 BKN050=



    US Dept of Commerce
    National Oceanic and Atmospheric Administration
    National Weather Service
    1325 East West Highway
    Silver Spring, MD 20910
    Page Author: NWS Internet Services Team
Disclaimer
Information Quality
Credits
Glossary
Privacy Policy
Freedom of Information Act (FOIA)
About Us
Career Opportunities